createdAt,value
2023-05-06T00:00:22.148Z,95185.00
2023-05-06T00:01:22.190Z,95181.00
2023-05-06T00:02:22.280Z,95183.00
2023-05-06T00:03:22.430Z,95179.00
2023-05-06T00:04:22.412Z,95177.00
2023-05-06T00:05:22.364Z,95177.00
2023-05-06T00:06:22.403Z,95175.00
2023-05-06T00:07:22.418Z,95177.00
2023-05-06T00:08:22.459Z,95177.00
2023-05-06T00:09:22.496Z,95177.00
2023-05-06T00:10:22.556Z,95177.00
2023-05-06T00:11:22.625Z,95175.00
2023-05-06T00:12:22.661Z,95175.00
2023-05-06T00:13:22.666Z,95175.00
2023-05-06T00:14:22.731Z,95177.00
2023-05-06T00:15:22.760Z,95177.00
2023-05-06T00:16:22.837Z,95175.00
2023-05-06T00:17:22.808Z,95173.00
2023-05-06T00:18:22.879Z,95171.00
2023-05-06T00:19:22.883Z,95173.00
2023-05-06T00:20:23.123Z,95171.00
2023-05-06T00:21:22.971Z,95170.00
2023-05-06T00:22:23.021Z,95171.00
2023-05-06T00:23:23.071Z,95170.00
2023-05-06T00:24:23.102Z,95166.00
2023-05-06T00:25:23.167Z,95168.00
2023-05-06T00:26:23.212Z,95162.00
2023-05-06T00:27:23.248Z,95164.00
2023-05-06T00:28:23.246Z,95164.00
2023-05-06T00:29:23.354Z,95164.00
2023-05-06T00:30:23.366Z,95162.00
2023-05-06T00:31:23.417Z,95162.00
2023-05-06T00:32:23.551Z,95162.00
2023-05-06T00:33:23.472Z,95162.00
2023-05-06T00:34:23.510Z,95156.00
2023-05-06T00:35:23.549Z,95156.00
2023-05-06T00:36:23.631Z,95156.00
2023-05-06T00:37:23.638Z,95156.00
2023-05-06T00:38:23.676Z,95156.00
2023-05-06T00:39:23.712Z,95156.00
2023-05-06T00:40:23.787Z,95156.00
2023-05-06T00:41:23.824Z,95152.00
2023-05-06T00:42:23.858Z,95152.00
2023-05-06T00:43:23.909Z,95150.00
2023-05-06T00:44:23.954Z,95148.00
2023-05-06T00:45:24.000Z,95146.00
2023-05-06T00:46:24.075Z,95146.00
2023-05-06T00:47:24.089Z,95146.00
2023-05-06T00:48:24.165Z,95146.00
2023-05-06T00:49:24.187Z,95146.00
2023-05-06T00:50:24.235Z,95146.00
2023-05-06T00:51:24.268Z,95146.00
2023-05-06T00:52:24.398Z,95144.00
2023-05-06T00:53:24.382Z,95136.00
2023-05-06T00:54:24.453Z,95136.00
2023-05-06T00:55:24.472Z,95130.00
2023-05-06T00:56:24.514Z,95130.00
2023-05-06T00:57:24.633Z,95134.00
2023-05-06T00:58:24.601Z,95132.00
2023-05-06T00:59:24.654Z,95134.00
2023-05-06T01:00:24.707Z,95130.00
2023-05-06T01:01:24.801Z,95132.00
2023-05-06T01:02:30.703Z,95130.00
2023-05-06T01:03:25.914Z,95132.00
2023-05-06T01:04:24.773Z,95132.00
2023-05-06T01:05:24.766Z,95130.00
2023-05-06T01:06:24.758Z,95130.00
2023-05-06T01:07:24.748Z,95132.00
2023-05-06T01:08:24.816Z,95128.00
2023-05-06T01:09:24.755Z,95124.00
2023-05-06T01:10:24.782Z,95122.00
2023-05-06T01:11:25.551Z,95124.00
2023-05-06T01:12:24.724Z,95124.00
2023-05-06T01:13:24.729Z,95122.00
2023-05-06T01:14:24.773Z,95122.00
2023-05-06T01:15:24.799Z,95124.00
2023-05-06T01:16:24.905Z,95124.00
2023-05-06T01:17:24.916Z,95124.00
2023-05-06T01:18:24.977Z,95124.00
2023-05-06T01:19:25.021Z,95124.00
2023-05-06T01:20:25.075Z,95122.00
2023-05-06T01:21:25.108Z,95124.00
2023-05-06T01:22:25.154Z,95122.00
2023-05-06T01:23:25.199Z,95122.00
2023-05-06T01:24:25.302Z,95122.00
2023-05-06T01:25:25.333Z,95124.00
2023-05-06T01:26:25.390Z,95126.00
2023-05-06T01:27:25.411Z,95126.00
2023-05-06T01:28:25.484Z,95124.00
2023-05-06T01:29:25.508Z,95126.00
2023-05-06T01:30:25.564Z,95122.00
2023-05-06T01:31:25.680Z,95122.00
2023-05-06T01:32:25.685Z,95122.00
2023-05-06T01:33:25.723Z,95122.00
2023-05-06T01:34:25.852Z,95122.00
2023-05-06T01:35:25.841Z,95122.00
2023-05-06T01:36:25.866Z,95121.00
2023-05-06T01:37:26.595Z,95124.00
2023-05-06T01:38:26.010Z,95122.00
2023-05-06T01:39:26.051Z,95122.00
2023-05-06T01:40:26.203Z,95124.00
2023-05-06T01:41:27.059Z,95124.00
2023-05-06T01:42:26.205Z,95126.00
2023-05-06T01:43:26.218Z,95126.00
2023-05-06T01:44:26.322Z,95122.00
2023-05-06T01:45:26.356Z,95124.00
2023-05-06T01:46:26.403Z,95128.00
2023-05-06T01:47:26.500Z,95128.00
2023-05-06T01:48:26.507Z,95128.00
2023-05-06T01:49:26.593Z,95130.00
2023-05-06T01:50:26.599Z,95130.00
2023-05-06T01:51:26.619Z,95132.00
2023-05-06T01:52:26.684Z,95130.00
2023-05-06T01:53:26.760Z,95130.00
2023-05-06T01:54:26.803Z,95130.00
2023-05-06T01:55:26.829Z,95132.00
2023-05-06T01:56:26.933Z,95132.00
2023-05-06T01:57:26.949Z,95132.00
2023-05-06T01:58:26.973Z,95130.00
2023-05-06T01:59:28.442Z,95132.00
2023-05-06T02:00:27.146Z,95134.00
2023-05-06T02:01:27.298Z,95134.00
2023-05-06T02:02:27.269Z,95130.00
2023-05-06T02:03:27.373Z,95134.00
2023-05-06T02:04:27.344Z,95132.00
2023-05-06T02:05:27.394Z,95134.00
2023-05-06T02:06:27.431Z,95134.00
2023-05-06T02:07:27.511Z,95132.00
2023-05-06T02:08:27.586Z,95136.00
2023-05-06T02:09:27.620Z,95132.00
2023-05-06T02:10:27.667Z,95132.00
2023-05-06T02:11:27.734Z,95134.00
2023-05-06T02:12:27.842Z,95130.00
2023-05-06T02:13:27.818Z,95130.00
2023-05-06T02:14:27.901Z,95128.00
2023-05-06T02:15:28.029Z,95128.00
2023-05-06T02:16:28.016Z,95124.00
2023-05-06T02:17:28.062Z,95126.00
2023-05-06T02:18:28.112Z,95122.00
2023-05-06T02:19:28.201Z,95119.00
2023-05-06T02:20:28.231Z,95126.00
2023-05-06T02:21:28.312Z,95121.00
2023-05-06T02:22:28.338Z,95122.00
2023-05-06T02:23:28.439Z,95122.00
2023-05-06T02:24:28.458Z,95122.00
2023-05-06T02:25:28.515Z,95122.00
2023-05-06T02:26:28.582Z,95121.00
2023-05-06T02:27:28.614Z,95121.00
2023-05-06T02:28:28.776Z,95126.00
2023-05-06T02:29:28.737Z,95122.00
2023-05-06T02:30:28.795Z,95124.00
2023-05-06T02:31:28.842Z,95124.00
2023-05-06T02:32:28.970Z,95121.00
2023-05-06T02:33:28.949Z,95121.00
2023-05-06T02:34:29.012Z,95121.00
2023-05-06T02:35:29.049Z,95115.00
2023-05-06T02:36:29.128Z,95115.00
2023-05-06T02:37:29.170Z,95115.00
2023-05-06T02:38:29.220Z,95117.00
2023-05-06T02:39:29.287Z,95117.00
2023-05-06T02:40:29.341Z,95113.00
2023-05-06T02:41:29.376Z,95115.00
2023-05-06T02:42:29.436Z,95113.00
2023-05-06T02:43:29.514Z,95113.00
2023-05-06T02:44:29.625Z,95109.00
2023-05-06T02:45:29.651Z,95107.00
2023-05-06T02:46:29.678Z,95107.00
2023-05-06T02:47:29.772Z,95107.00
2023-05-06T02:48:29.809Z,95105.00
2023-05-06T02:49:29.863Z,95105.00
2023-05-06T02:50:29.948Z,95111.00
2023-05-06T02:51:29.967Z,95113.00
2023-05-06T02:52:30.025Z,95119.00
2023-05-06T02:53:30.081Z,95117.00
2023-05-06T02:54:30.138Z,95113.00
2023-05-06T02:55:30.208Z,95115.00
2023-05-06T02:56:30.252Z,95113.00
2023-05-06T02:57:30.352Z,95111.00
2023-05-06T02:58:30.391Z,95111.00
2023-05-06T02:59:30.411Z,95111.00
2023-05-06T03:00:30.574Z,95109.00
2023-05-06T03:01:30.586Z,95109.00
2023-05-06T03:02:30.641Z,95111.00
2023-05-06T03:03:30.702Z,95109.00
2023-05-06T03:04:30.837Z,95109.00
2023-05-06T03:05:30.875Z,95109.00
2023-05-06T03:06:30.859Z,95109.00
2023-05-06T03:07:30.938Z,95113.00
2023-05-06T03:08:30.996Z,95111.00
2023-05-06T03:09:31.038Z,95111.00
2023-05-06T03:10:31.116Z,95113.00
2023-05-06T03:11:31.177Z,95115.00
2023-05-06T03:12:31.259Z,95113.00
2023-05-06T03:13:31.296Z,95111.00
2023-05-06T03:14:31.365Z,95111.00
2023-05-06T03:15:31.378Z,95111.00
2023-05-06T03:16:31.634Z,95111.00
2023-05-06T03:17:31.555Z,95111.00
2023-05-06T03:18:31.579Z,95109.00
2023-05-06T03:19:31.665Z,95111.00
2023-05-06T03:20:31.678Z,95113.00
2023-05-06T03:21:31.794Z,95113.00
2023-05-06T03:22:31.864Z,95111.00
2023-05-06T03:23:31.892Z,95115.00
2023-05-06T03:24:31.913Z,95111.00
2023-05-06T03:25:32.015Z,95111.00
2023-05-06T03:26:32.058Z,95115.00
2023-05-06T03:27:32.137Z,95113.00
2023-05-06T03:28:32.181Z,95111.00
2023-05-06T03:29:32.317Z,95109.00
2023-05-06T03:30:32.307Z,95109.00
2023-05-06T03:31:32.482Z,95109.00
2023-05-06T03:32:32.594Z,95109.00
2023-05-06T03:33:32.521Z,95111.00
2023-05-06T03:34:32.534Z,95113.00
2023-05-06T03:35:32.633Z,95113.00
2023-05-06T03:36:32.662Z,95109.00
2023-05-06T03:37:32.748Z,95105.00
2023-05-06T03:38:32.812Z,95103.00
2023-05-06T03:39:32.851Z,95103.00
2023-05-06T03:40:32.920Z,95103.00
2023-05-06T03:41:32.975Z,95101.00
2023-05-06T03:42:33.051Z,95099.00
2023-05-06T03:43:33.139Z,95099.00
2023-05-06T03:44:33.245Z,95101.00
2023-05-06T03:45:33.252Z,95101.00
2023-05-06T03:46:33.316Z,95101.00
2023-05-06T03:47:33.447Z,95103.00
2023-05-06T03:48:33.492Z,95099.00
2023-05-06T03:49:33.490Z,95101.00
2023-05-06T03:50:33.535Z,95103.00
2023-05-06T03:51:33.597Z,95107.00
2023-05-06T03:52:33.660Z,95111.00
2023-05-06T03:53:33.721Z,95111.00
2023-05-06T03:54:33.767Z,95111.00
2023-05-06T03:55:33.845Z,95109.00
2023-05-06T03:56:33.880Z,95111.00
2023-05-06T03:57:33.918Z,95109.00
2023-05-06T03:58:33.987Z,95105.00
2023-05-06T03:59:34.040Z,95107.00
2023-05-06T04:00:34.065Z,95107.00
2023-05-06T04:01:34.094Z,95109.00
2023-05-06T04:02:34.354Z,95109.00
2023-05-06T04:03:34.401Z,95115.00
2023-05-06T04:04:34.327Z,95117.00
2023-05-06T04:05:34.345Z,95117.00
2023-05-06T04:06:34.394Z,95119.00
2023-05-06T04:07:34.456Z,95121.00
2023-05-06T04:08:34.510Z,95122.00
2023-05-06T04:09:34.518Z,95124.00
2023-05-06T04:10:34.587Z,95124.00
2023-05-06T04:11:34.652Z,95126.00
2023-05-06T04:12:34.708Z,95130.00
2023-05-06T04:13:34.742Z,95130.00
2023-05-06T04:14:34.792Z,95132.00
2023-05-06T04:15:34.824Z,95136.00
2023-05-06T04:16:34.955Z,95146.00
2023-05-06T04:17:34.975Z,95150.00
2023-05-06T04:18:35.019Z,95156.00
2023-05-06T04:19:35.053Z,95158.00
2023-05-06T04:20:35.149Z,95162.00
2023-05-06T04:21:35.138Z,95158.00
2023-05-06T04:22:35.186Z,95160.00
2023-05-06T04:23:35.278Z,95160.00
2023-05-06T04:24:35.342Z,95156.00
2023-05-06T04:25:35.414Z,95156.00
2023-05-06T04:26:35.477Z,95158.00
2023-05-06T04:27:35.562Z,95154.00
2023-05-06T04:28:35.622Z,95158.00
2023-05-06T04:29:35.693Z,95156.00
2023-05-06T04:30:35.755Z,95156.00
2023-05-06T04:31:35.822Z,95156.00
2023-05-06T04:32:35.891Z,95154.00
2023-05-06T04:33:35.887Z,95150.00
2023-05-06T04:34:35.915Z,95148.00
2023-05-06T04:35:35.945Z,95146.00
2023-05-06T04:36:36.085Z,95146.00
2023-05-06T04:37:36.127Z,95150.00
2023-05-06T04:38:36.101Z,95148.00
2023-05-06T04:39:36.043Z,95148.00
2023-05-06T04:40:36.201Z,95148.00
2023-05-06T04:41:36.231Z,95148.00
2023-05-06T04:42:36.285Z,95152.00
2023-05-06T04:43:36.362Z,95150.00
2023-05-06T04:44:36.518Z,95156.00
2023-05-06T04:45:36.589Z,95152.00
2023-05-06T04:46:36.550Z,95152.00
2023-05-06T04:47:36.669Z,95154.00
2023-05-06T04:48:36.626Z,95156.00
2023-05-06T04:49:36.633Z,95158.00
2023-05-06T04:50:37.237Z,95158.00
2023-05-06T04:51:36.688Z,95156.00
2023-05-06T04:52:36.768Z,95154.00
2023-05-06T04:53:36.724Z,95154.00
2023-05-06T04:54:36.727Z,95152.00
2023-05-06T04:55:36.773Z,95150.00
2023-05-06T04:56:36.834Z,95148.00
2023-05-06T04:57:36.839Z,95150.00
2023-05-06T04:58:36.873Z,95146.00
2023-05-06T04:59:36.939Z,95150.00
2023-05-06T05:00:37.032Z,95148.00
2023-05-06T05:01:37.126Z,95148.00
2023-05-06T05:02:37.304Z,95154.00
2023-05-06T05:03:37.187Z,95154.00
2023-05-06T05:04:37.209Z,95156.00
2023-05-06T05:05:37.251Z,95158.00
2023-05-06T05:06:37.323Z,95158.00
2023-05-06T05:07:37.365Z,95160.00
2023-05-06T05:08:37.393Z,95160.00
2023-05-06T05:09:37.450Z,95162.00
2023-05-06T05:10:37.525Z,95160.00
2023-05-06T05:11:37.589Z,95156.00
2023-05-06T05:12:37.670Z,95162.00
2023-05-06T05:13:37.669Z,95160.00
2023-05-06T05:14:37.717Z,95160.00
2023-05-06T05:15:37.725Z,95156.00
2023-05-06T05:16:37.852Z,95156.00
2023-05-06T05:17:37.862Z,95156.00
2023-05-06T05:18:37.840Z,95154.00
2023-05-06T05:19:37.878Z,95160.00
2023-05-06T05:20:37.908Z,95160.00
2023-05-06T05:21:37.966Z,95164.00
2023-05-06T05:22:38.006Z,95164.00
2023-05-06T05:23:38.098Z,95166.00
2023-05-06T05:24:38.245Z,95170.00
2023-05-06T05:25:38.220Z,95171.00
2023-05-06T05:26:38.247Z,95171.00
2023-05-06T05:27:38.352Z,95171.00
2023-05-06T05:28:38.383Z,95171.00
2023-05-06T05:29:38.452Z,95170.00
2023-05-06T05:30:38.545Z,95171.00
2023-05-06T05:31:38.599Z,95170.00
2023-05-06T05:32:38.631Z,95168.00
2023-05-06T05:33:38.671Z,95170.00
2023-05-06T05:34:38.702Z,95168.00
2023-05-06T05:35:38.755Z,95168.00
2023-05-06T05:36:38.769Z,95166.00
2023-05-06T05:37:38.838Z,95164.00
2023-05-06T05:38:38.882Z,95162.00
2023-05-06T05:39:38.946Z,95166.00
2023-05-06T05:40:39.057Z,95166.00
2023-05-06T05:41:39.066Z,95164.00
2023-05-06T05:42:39.105Z,95168.00
2023-05-06T05:43:39.147Z,95166.00
2023-05-06T05:44:39.172Z,95168.00
2023-05-06T05:45:39.279Z,95168.00
2023-05-06T05:46:39.344Z,95164.00
2023-05-06T05:47:39.428Z,95164.00
2023-05-06T05:48:39.397Z,95162.00
2023-05-06T05:49:39.438Z,95160.00
2023-05-06T05:50:39.498Z,95154.00
2023-05-06T05:51:39.558Z,95152.00
2023-05-06T05:52:39.660Z,95152.00
2023-05-06T05:53:39.666Z,95158.00
2023-05-06T05:54:39.702Z,95164.00
2023-05-06T05:55:39.778Z,95166.00
2023-05-06T05:56:39.922Z,95164.00
2023-05-06T05:57:39.923Z,95158.00
2023-05-06T05:58:39.959Z,95152.00
2023-05-06T05:59:40.006Z,95148.00
2023-05-06T06:00:40.073Z,95146.00
2023-05-06T06:01:40.151Z,95146.00
2023-05-06T06:02:40.268Z,95150.00
2023-05-06T06:03:40.394Z,95150.00
2023-05-06T06:04:40.388Z,95152.00
2023-05-06T06:05:40.435Z,95152.00
2023-05-06T06:06:40.437Z,95154.00
2023-05-06T06:07:40.512Z,95152.00
2023-05-06T06:08:40.556Z,95154.00
2023-05-06T06:09:40.623Z,95158.00
2023-05-06T06:10:40.690Z,95156.00
2023-05-06T06:11:40.789Z,95154.00
2023-05-06T06:12:40.947Z,95150.00
2023-05-06T06:13:40.882Z,95150.00
2023-05-06T06:14:40.915Z,95152.00
2023-05-06T06:15:41.025Z,95154.00
2023-05-06T06:16:41.214Z,95152.00
2023-05-06T06:17:41.109Z,95154.00
2023-05-06T06:18:41.148Z,95156.00
2023-05-06T06:19:42.201Z,95156.00
2023-05-06T06:20:41.302Z,95158.00
2023-05-06T06:21:41.328Z,95160.00
2023-05-06T06:22:41.389Z,95158.00
2023-05-06T06:23:41.423Z,95160.00
2023-05-06T06:24:41.513Z,95162.00
2023-05-06T06:25:41.590Z,95162.00
2023-05-06T06:26:41.588Z,95162.00
2023-05-06T06:27:41.681Z,95162.00
2023-05-06T06:28:41.815Z,95160.00
2023-05-06T06:29:41.752Z,95160.00
2023-05-06T06:30:41.869Z,95156.00
2023-05-06T06:31:41.893Z,95154.00
2023-05-06T06:32:41.920Z,95150.00
2023-05-06T06:33:41.994Z,95150.00
2023-05-06T06:34:42.043Z,95148.00
2023-05-06T06:35:42.158Z,95146.00
2023-05-06T06:36:42.165Z,95150.00
2023-05-06T06:37:42.212Z,95150.00
2023-05-06T06:38:42.282Z,95150.00
2023-05-06T06:39:42.374Z,95150.00
2023-05-06T06:40:42.397Z,95152.00
2023-05-06T06:41:42.467Z,95148.00
2023-05-06T06:42:42.506Z,95146.00
2023-05-06T06:43:42.605Z,95144.00
2023-05-06T06:44:42.669Z,95146.00
2023-05-06T06:45:42.735Z,95146.00
2023-05-06T06:46:42.789Z,95146.00
2023-05-06T06:47:42.869Z,95144.00
2023-05-06T06:48:42.901Z,95144.00
2023-05-06T06:49:42.927Z,95146.00
2023-05-06T06:50:42.991Z,95144.00
2023-05-06T06:51:43.055Z,95146.00
2023-05-06T06:52:43.129Z,95148.00
2023-05-06T06:53:43.145Z,95148.00
2023-05-06T06:54:43.256Z,95146.00
2023-05-06T06:55:43.311Z,95144.00
2023-05-06T06:56:43.371Z,95146.00
2023-05-06T06:57:43.424Z,95144.00
2023-05-06T06:58:43.478Z,95146.00
2023-05-06T06:59:43.551Z,95146.00
2023-05-06T07:00:43.599Z,95146.00
2023-05-06T07:01:43.656Z,95146.00
2023-05-06T07:02:43.795Z,95136.00
2023-05-06T07:03:43.820Z,95144.00
2023-05-06T07:04:43.965Z,95144.00
2023-05-06T07:05:43.889Z,95144.00
2023-05-06T07:06:43.961Z,95146.00
2023-05-06T07:07:44.016Z,95144.00
2023-05-06T07:08:44.078Z,95136.00
2023-05-06T07:09:44.172Z,95134.00
2023-05-06T07:10:44.185Z,95132.00
2023-05-06T07:11:44.242Z,95134.00
2023-05-06T07:12:44.436Z,95132.00
2023-05-06T07:13:44.426Z,95132.00
2023-05-06T07:14:44.473Z,95132.00
2023-05-06T07:15:44.520Z,95132.00
2023-05-06T07:16:46.340Z,95132.00
2023-05-06T07:17:44.600Z,95132.00
2023-05-06T07:18:44.536Z,95132.00
2023-05-06T07:19:44.560Z,95130.00
2023-05-06T07:20:44.545Z,95126.00
2023-05-06T07:21:44.587Z,95128.00
2023-05-06T07:22:44.574Z,95128.00
2023-05-06T07:23:44.593Z,95126.00
2023-05-06T07:24:44.562Z,95126.00
2023-05-06T07:25:44.599Z,95130.00
2023-05-06T07:26:44.584Z,95126.00
2023-05-06T07:27:44.588Z,95128.00
2023-05-06T07:28:44.461Z,95126.00
2023-05-06T07:29:44.448Z,95128.00
2023-05-06T07:30:44.496Z,95126.00
2023-05-06T07:31:44.455Z,95128.00
2023-05-06T07:32:44.677Z,95126.00
2023-05-06T07:33:44.414Z,95128.00
2023-05-06T07:34:44.412Z,95126.00
2023-05-06T07:35:44.413Z,95126.00
2023-05-06T07:36:44.384Z,95124.00
2023-05-06T07:37:44.401Z,95124.00
2023-05-06T07:38:44.387Z,95124.00
2023-05-06T07:39:44.378Z,95124.00
2023-05-06T07:40:44.374Z,95126.00
2023-05-06T07:41:44.373Z,95128.00
2023-05-06T07:42:44.351Z,95124.00
2023-05-06T07:43:44.378Z,95121.00
2023-05-06T07:44:44.366Z,95121.00
2023-05-06T07:45:44.360Z,95121.00
2023-05-06T07:46:44.407Z,95119.00
2023-05-06T07:47:44.347Z,95121.00
2023-05-06T07:48:44.313Z,95121.00
2023-05-06T07:49:44.307Z,95121.00
2023-05-06T07:50:44.303Z,95119.00
2023-05-06T07:51:44.282Z,95117.00
2023-05-06T07:52:44.287Z,95119.00
2023-05-06T07:53:44.268Z,95117.00
2023-05-06T07:54:44.316Z,95119.00
2023-05-06T07:55:44.255Z,95117.00
2023-05-06T07:56:44.334Z,95117.00
2023-05-06T07:57:44.354Z,95111.00
2023-05-06T07:58:44.389Z,95115.00
2023-05-06T07:59:45.213Z,95115.00
2023-05-06T08:00:44.522Z,95111.00
2023-05-06T08:01:44.590Z,95111.00
2023-05-06T08:02:45.027Z,95113.00
2023-05-06T08:03:44.786Z,95113.00
2023-05-06T08:04:44.856Z,95111.00
2023-05-06T08:05:44.786Z,95109.00
2023-05-06T08:06:44.819Z,95113.00
2023-05-06T08:07:44.872Z,95113.00
2023-05-06T08:08:44.935Z,95113.00
2023-05-06T08:09:44.999Z,95109.00
2023-05-06T08:10:45.077Z,95111.00
2023-05-06T08:11:45.048Z,95111.00
2023-05-06T08:12:45.117Z,95109.00
2023-05-06T08:13:45.172Z,95107.00
2023-05-06T08:14:45.212Z,95109.00
2023-05-06T08:15:45.392Z,95109.00
2023-05-06T08:16:45.443Z,95111.00
2023-05-06T08:17:45.385Z,95111.00
2023-05-06T08:18:45.394Z,95115.00
2023-05-06T08:19:45.438Z,95117.00
2023-05-06T08:20:45.531Z,95121.00
2023-05-06T08:21:45.517Z,95115.00
2023-05-06T08:22:45.566Z,95115.00
2023-05-06T08:23:45.636Z,95115.00
2023-05-06T08:24:45.649Z,95117.00
2023-05-06T08:25:45.710Z,95121.00
2023-05-06T08:26:45.750Z,95121.00
2023-05-06T08:27:45.809Z,95119.00
2023-05-06T08:28:45.833Z,95119.00
2023-05-06T08:29:45.883Z,95124.00
2023-05-06T08:30:45.962Z,95121.00
2023-05-06T08:31:46.088Z,95117.00
2023-05-06T08:32:46.059Z,95122.00
2023-05-06T08:33:46.089Z,95119.00
2023-05-06T08:34:46.100Z,95126.00
2023-05-06T08:35:46.171Z,95122.00
2023-05-06T08:36:46.271Z,95121.00
2023-05-06T08:37:46.266Z,95121.00
2023-05-06T08:38:46.309Z,95121.00
2023-05-06T08:39:46.384Z,95122.00
2023-05-06T08:40:46.416Z,95122.00
2023-05-06T08:41:46.441Z,95122.00
2023-05-06T08:42:46.510Z,95124.00
2023-05-06T08:43:46.530Z,95124.00
2023-05-06T08:44:46.588Z,95128.00
2023-05-06T08:45:46.662Z,95128.00
2023-05-06T08:46:46.686Z,95126.00
2023-05-06T08:47:46.813Z,95128.00
2023-05-06T08:48:46.783Z,95130.00
2023-05-06T08:49:46.795Z,95132.00
2023-05-06T08:50:46.881Z,95132.00
2023-05-06T08:51:46.911Z,95130.00
2023-05-06T08:52:47.747Z,95128.00
2023-05-06T08:53:47.004Z,95128.00
2023-05-06T08:54:47.078Z,95132.00
2023-05-06T08:55:47.127Z,95132.00
2023-05-06T08:56:47.202Z,95130.00
2023-05-06T08:57:47.224Z,95130.00
2023-05-06T08:58:47.292Z,95130.00
2023-05-06T08:59:47.314Z,95128.00
2023-05-06T09:00:47.425Z,95128.00
2023-05-06T09:01:47.460Z,95130.00
2023-05-06T09:02:47.549Z,95134.00
2023-05-06T09:03:47.558Z,95134.00
2023-05-06T09:04:47.560Z,95146.00
2023-05-06T09:05:47.628Z,95144.00
2023-05-06T09:06:47.708Z,95150.00
2023-05-06T09:07:47.761Z,95148.00
2023-05-06T09:08:47.894Z,95154.00
2023-05-06T09:09:47.889Z,95152.00
2023-05-06T09:10:47.935Z,95148.00
2023-05-06T09:11:47.968Z,95148.00
2023-05-06T09:12:48.050Z,95144.00
2023-05-06T09:13:48.100Z,95146.00
2023-05-06T09:14:48.160Z,95146.00
2023-05-06T09:15:48.249Z,95144.00
2023-05-06T09:16:48.265Z,95146.00
2023-05-06T09:17:48.371Z,95148.00
2023-05-06T09:18:48.369Z,95144.00
2023-05-06T09:19:48.434Z,95144.00
2023-05-06T09:20:48.520Z,95146.00
2023-05-06T09:21:48.574Z,95132.00
2023-05-06T09:22:48.635Z,95134.00
2023-05-06T09:23:48.666Z,95136.00
2023-05-06T09:24:48.796Z,95134.00
2023-05-06T09:25:48.799Z,95130.00
2023-05-06T09:26:48.831Z,95128.00
2023-05-06T09:27:48.876Z,95128.00
2023-05-06T09:28:48.936Z,95130.00
2023-05-06T09:29:49.008Z,95130.00
2023-05-06T09:30:49.053Z,95128.00
2023-05-06T09:31:49.077Z,95128.00
2023-05-06T09:32:49.186Z,95124.00
2023-05-06T09:33:49.192Z,95124.00
2023-05-06T09:34:49.240Z,95126.00
2023-05-06T09:35:49.272Z,95124.00
2023-05-06T09:36:49.324Z,95122.00
2023-05-06T09:37:49.394Z,95126.00
2023-05-06T09:38:49.467Z,95124.00
2023-05-06T09:39:49.560Z,95124.00
2023-05-06T09:40:49.642Z,95124.00
2023-05-06T09:41:49.640Z,95124.00
2023-05-06T09:42:49.698Z,95126.00
2023-05-06T09:43:49.757Z,95122.00
2023-05-06T09:44:49.807Z,95122.00
2023-05-06T09:45:49.882Z,95122.00
2023-05-06T09:46:49.921Z,95121.00
2023-05-06T09:47:50.027Z,95122.00
2023-05-06T09:48:50.063Z,95126.00
2023-05-06T09:49:50.127Z,95122.00
2023-05-06T09:50:50.183Z,95124.00
2023-05-06T09:51:50.237Z,95122.00
2023-05-06T09:52:50.285Z,95122.00
2023-05-06T09:53:50.369Z,95119.00
2023-05-06T09:54:50.379Z,95122.00
2023-05-06T09:55:50.475Z,95124.00
2023-05-06T09:56:50.605Z,95124.00
2023-05-06T09:57:50.569Z,95121.00
2023-05-06T09:58:50.627Z,95117.00
2023-05-06T09:59:50.676Z,95119.00
2023-05-06T10:00:50.752Z,95117.00
2023-05-06T10:01:50.805Z,95121.00
2023-05-06T10:02:50.926Z,95117.00
2023-05-06T10:03:50.970Z,95117.00
2023-05-06T10:04:51.342Z,95119.00
2023-05-06T10:05:51.000Z,95119.00
2023-05-06T10:06:51.052Z,95117.00
2023-05-06T10:07:51.091Z,95115.00
2023-05-06T10:08:51.165Z,95115.00
2023-05-06T10:09:51.247Z,95113.00
2023-05-06T10:10:51.268Z,95111.00
2023-05-06T10:11:51.313Z,95111.00
2023-05-06T10:12:51.435Z,95109.00
2023-05-06T10:13:51.405Z,95107.00
2023-05-06T10:14:51.426Z,95107.00
2023-05-06T10:15:51.504Z,95107.00
2023-05-06T10:16:51.529Z,95105.00
2023-05-06T10:17:51.597Z,95103.00
2023-05-06T10:18:51.647Z,95099.00
2023-05-06T10:19:51.701Z,95097.00
2023-05-06T10:20:51.743Z,95097.00
2023-05-06T10:21:51.778Z,95095.00
2023-05-06T10:22:51.815Z,95095.00
2023-05-06T10:23:51.855Z,95093.00
2023-05-06T10:24:51.921Z,95095.00
2023-05-06T10:25:51.998Z,95093.00
2023-05-06T10:26:52.015Z,95091.00
2023-05-06T10:27:52.055Z,95091.00
2023-05-06T10:28:52.121Z,95087.00
2023-05-06T10:29:52.178Z,95087.00
2023-05-06T10:30:52.222Z,95087.00
2023-05-06T10:31:52.294Z,95083.00
2023-05-06T10:32:52.422Z,95083.00
2023-05-06T10:33:52.316Z,95081.00
2023-05-06T10:34:52.373Z,95083.00
2023-05-06T10:35:52.423Z,95081.00
2023-05-06T10:36:52.460Z,95083.00
2023-05-06T10:37:52.503Z,95083.00
2023-05-06T10:38:52.544Z,95083.00
2023-05-06T10:39:52.578Z,95081.00
2023-05-06T10:40:52.627Z,95081.00
2023-05-06T10:41:52.652Z,95081.00
2023-05-06T10:42:52.730Z,95077.00
2023-05-06T10:43:52.765Z,95075.00
2023-05-06T10:44:52.809Z,95077.00
2023-05-06T10:45:52.946Z,95075.00
2023-05-06T10:46:52.850Z,95073.00
2023-05-06T10:47:52.965Z,95073.00
2023-05-06T10:48:52.950Z,95071.00
2023-05-06T10:49:53.012Z,95071.00
2023-05-06T10:50:53.024Z,95069.00
2023-05-06T10:51:53.068Z,95069.00
2023-05-06T10:52:53.110Z,95067.00
2023-05-06T10:53:53.154Z,95066.00
2023-05-06T10:54:53.202Z,95066.00
2023-05-06T10:55:53.233Z,95067.00
2023-05-06T10:56:53.277Z,95064.00
2023-05-06T10:57:53.307Z,95060.00
2023-05-06T10:58:53.400Z,95060.00
2023-05-06T10:59:53.410Z,95060.00
2023-05-06T11:00:53.726Z,95060.00
2023-05-06T11:01:53.442Z,95060.00
2023-05-06T11:02:53.577Z,95058.00
2023-05-06T11:03:53.498Z,95060.00
2023-05-06T11:04:53.594Z,95058.00
2023-05-06T11:05:53.590Z,95060.00
2023-05-06T11:06:53.609Z,95058.00
2023-05-06T11:07:53.659Z,95056.00
2023-05-06T11:08:53.720Z,95056.00
2023-05-06T11:09:53.770Z,95054.00
2023-05-06T11:10:53.825Z,95058.00
2023-05-06T11:11:53.815Z,95056.00
2023-05-06T11:12:53.962Z,95054.00
2023-05-06T11:13:53.902Z,95052.00
2023-05-06T11:14:53.899Z,95054.00
2023-05-06T11:15:53.924Z,95054.00
2023-05-06T11:16:54.186Z,95052.00
2023-05-06T11:17:54.071Z,95048.00
2023-05-06T11:18:54.082Z,95048.00
2023-05-06T11:19:54.099Z,95048.00
2023-05-06T11:20:54.157Z,95050.00
2023-05-06T11:21:54.148Z,95050.00
2023-05-06T11:22:54.220Z,95052.00
2023-05-06T11:23:54.232Z,95050.00
2023-05-06T11:24:54.269Z,95050.00
2023-05-06T11:25:54.355Z,95050.00
2023-05-06T11:26:54.350Z,95050.00
2023-05-06T11:27:54.347Z,95050.00
2023-05-06T11:28:54.396Z,95050.00
2023-05-06T11:29:54.448Z,95048.00
2023-05-06T11:30:54.475Z,95046.00
2023-05-06T11:31:54.490Z,95046.00
2023-05-06T11:32:54.538Z,95050.00
2023-05-06T11:33:54.554Z,95048.00
2023-05-06T11:34:54.623Z,95050.00
2023-05-06T11:35:54.659Z,95046.00
2023-05-06T11:36:54.744Z,95044.00
2023-05-06T11:37:54.707Z,95046.00
2023-05-06T11:38:54.743Z,95046.00
2023-05-06T11:39:54.781Z,95048.00
2023-05-06T11:40:54.800Z,95048.00
2023-05-06T11:41:54.845Z,95046.00
2023-05-06T11:42:54.862Z,95046.00
2023-05-06T11:43:54.916Z,95046.00
2023-05-06T11:44:54.922Z,95046.00